sensor_id;sensor_type;location;lat;lon;timestamp;pressure;altitude;pressure_sealevel;temperature;humidity
74915;BME280;63475;45.140;-75.616;2023-09-19T00:00:46;100003.56;;;18.06;69.55
74915;BME280;63475;45.140;-75.616;2023-09-19T00:02:55;100010.13;;;18.04;69.29
74915;BME280;63475;45.140;-75.616;2023-09-19T00:05:01;100010.59;;;17.99;69.31
74915;BME280;63475;45.140;-75.616;2023-09-19T00:07:05;99994.63;;;17.89;69.37
74915;BME280;63475;45.140;-75.616;2023-09-19T00:09:08;100021.06;;;17.94;69.68
74915;BME280;63475;45.140;-75.616;2023-09-19T00:11:12;100021.44;;;17.91;69.96
74915;BME280;63475;45.140;-75.616;2023-09-19T00:13:16;100012.66;;;17.81;69.91
74915;BME280;63475;45.140;-75.616;2023-09-19T00:15:19;100028.69;;;17.82;69.82
74915;BME280;63475;45.140;-75.616;2023-09-19T00:17:22;100021.94;;;17.78;70.33
74915;BME280;63475;45.140;-75.616;2023-09-19T00:19:25;100024.78;;;17.77;70.33
74915;BME280;63475;45.140;-75.616;2023-09-19T00:21:28;100027.66;;;17.75;70.47
74915;BME280;63475;45.140;-75.616;2023-09-19T00:23:30;100035.91;;;17.74;70.47
74915;BME280;63475;45.140;-75.616;2023-09-19T00:25:36;100047.03;;;17.71;70.75
74915;BME280;63475;45.140;-75.616;2023-09-19T00:27:40;100044.03;;;17.66;70.54
74915;BME280;63475;45.140;-75.616;2023-09-19T00:29:45;100039.81;;;17.63;70.92
74915;BME280;63475;45.140;-75.616;2023-09-19T00:31:47;100043.00;;;17.58;70.76
74915;BME280;63475;45.140;-75.616;2023-09-19T00:33:50;100042.34;;;17.56;70.89
74915;BME280;63475;45.140;-75.616;2023-09-19T00:35:54;100050.25;;;17.58;71.13
74915;BME280;63475;45.140;-75.616;2023-09-19T00:37:57;100045.03;;;17.56;70.97
74915;BME280;63475;45.140;-75.616;2023-09-19T00:39:59;100042.66;;;17.53;71.29
74915;BME280;63475;45.140;-75.616;2023-09-19T00:42:02;100036.91;;;17.48;71.33
74915;BME280;63475;45.140;-75.616;2023-09-19T00:44:07;100043.16;;;17.49;71.42
74915;BME280;63475;45.140;-75.616;2023-09-19T00:46:10;100037.44;;;17.44;71.42
74915;BME280;63475;45.140;-75.616;2023-09-19T00:48:13;100041.84;;;17.45;71.44
74915;BME280;63475;45.140;-75.616;2023-09-19T00:50:17;100043.69;;;17.44;71.56
74915;BME280;63475;45.140;-75.616;2023-09-19T00:52:21;100042.31;;;17.40;71.90
74915;BME280;63475;45.140;-75.616;2023-09-19T00:54:24;100039.78;;;17.39;71.80
74915;BME280;63475;45.140;-75.616;2023-09-19T00:56:28;100040.13;;;17.36;72.13
74915;BME280;63475;45.140;-75.616;2023-09-19T00:58:31;100031.19;;;17.35;72.32
74915;BME280;63475;45.140;-75.616;2023-09-19T01:00:36;100032.34;;;17.33;72.11
74915;BME280;63475;45.140;-75.616;2023-09-19T01:02:39;100016.34;;;17.23;72.10
74915;BME280;63475;45.140;-75.616;2023-09-19T01:04:42;100023.91;;;17.27;72.48
74915;BME280;63475;45.140;-75.616;2023-09-19T01:06:45;100019.38;;;17.28;72.79
74915;BME280;63475;45.140;-75.616;2023-09-19T01:08:48;100018.22;;;17.22;72.25
74915;BME280;63475;45.140;-75.616;2023-09-19T01:10:59;100018.69;;;17.18;72.66
74915;BME280;63475;45.140;-75.616;2023-09-19T01:13:23;100014.16;;;17.18;72.63
74915;BME280;63475;45.140;-75.616;2023-09-19T01:18:03;100010.25;;;17.13;73.11
74915;BME280;63475;45.140;-75.616;2023-09-19T01:20:33;100012.28;;;17.11;73.19
74915;BME280;63475;45.140;-75.616;2023-09-19T01:22:53;100015.81;;;17.11;73.19
74915;BME280;63475;45.140;-75.616;2023-09-19T01:25:36;100012.56;;;17.08;73.24
74915;BME280;63475;45.140;-75.616;2023-09-19T01:30:27;100010.19;;;16.97;73.63
74915;BME280;63475;45.140;-75.616;2023-09-19T01:32:34;100012.19;;;16.86;73.81
74915;BME280;63475;45.140;-75.616;2023-09-19T01:34:43;99999.88;;;16.84;74.03
74915;BME280;63475;45.140;-75.616;2023-09-19T01:36:47;99998.03;;;16.76;74.14
74915;BME280;63475;45.140;-75.616;2023-09-19T01:38:51;99999.50;;;16.71;74.43
74915;BME280;63475;45.140;-75.616;2023-09-19T01:41:08;100000.66;;;16.68;74.50
74915;BME280;63475;45.140;-75.616;2023-09-19T01:43:30;100007.38;;;16.64;74.97
74915;BME280;63475;45.140;-75.616;2023-09-19T01:45:44;100006.00;;;16.60;75.05
74915;BME280;63475;45.140;-75.616;2023-09-19T01:47:53;99999.28;;;16.56;74.92
74915;BME280;63475;45.140;-75.616;2023-09-19T01:50:17;100002.31;;;16.53;75.14
74915;BME280;63475;45.140;-75.616;2023-09-19T01:52:28;99992.34;;;16.45;75.17
74915;BME280;63475;45.140;-75.616;2023-09-19T01:54:46;100006.47;;;16.47;75.49
74915;BME280;63475;45.140;-75.616;2023-09-19T01:57:17;99994.19;;;16.45;75.21
74915;BME280;63475;45.140;-75.616;2023-09-19T01:59:24;99989.13;;;16.42;75.39
74915;BME280;63475;45.140;-75.616;2023-09-19T02:01:30;100003.91;;;16.38;75.59
74915;BME280;63475;45.140;-75.616;2023-09-19T02:03:34;99984.72;;;16.33;75.62
74915;BME280;63475;45.140;-75.616;2023-09-19T02:05:40;99998.19;;;16.33;75.66
74915;BME280;63475;45.140;-75.616;2023-09-19T02:07:42;99983.88;;;16.32;75.71
74915;BME280;63475;45.140;-75.616;2023-09-19T02:09:45;99990.09;;;16.33;75.66
74915;BME280;63475;45.140;-75.616;2023-09-19T02:11:50;99991.41;;;16.29;75.53
74915;BME280;63475;45.140;-75.616;2023-09-19T02:13:52;99985.72;;;16.32;76.16
74915;BME280;63475;45.140;-75.616;2023-09-19T02:15:56;99980.66;;;16.29;75.77
74915;BME280;63475;45.140;-75.616;2023-09-19T02:17:59;99986.72;;;16.31;75.84
74915;BME280;63475;45.140;-75.616;2023-09-19T02:20:02;99985.88;;;16.30;75.88
74915;BME280;63475;45.140;-75.616;2023-09-19T02:22:12;99980.66;;;16.29;75.76
74915;BME280;63475;45.140;-75.616;2023-09-19T02:24:16;99966.84;;;16.23;75.75
74915;BME280;63475;45.140;-75.616;2023-09-19T02:26:19;99981.13;;;16.24;75.83
74915;BME280;63475;45.140;-75.616;2023-09-19T02:28:22;99983.97;;;16.22;75.99
74915;BME280;63475;45.140;-75.616;2023-09-19T02:30:25;99983.97;;;16.22;76.20
74915;BME280;63475;45.140;-75.616;2023-09-19T02:32:28;99983.28;;;16.20;75.95
74915;BME280;63475;45.140;-75.616;2023-09-19T02:34:32;99977.53;;;16.15;76.02
74915;BME280;63475;45.140;-75.616;2023-09-19T02:36:38;99975.31;;;16.11;75.89
74915;BME280;63475;45.140;-75.616;2023-09-19T02:38:41;99981.03;;;16.08;76.26
74915;BME280;63475;45.140;-75.616;2023-09-19T02:40:44;99976.47;;;16.08;76.26
74915;BME280;63475;45.140;-75.616;2023-09-19T02:42:47;99980.50;;;16.04;76.54
74915;BME280;63475;45.140;-75.616;2023-09-19T02:44:50;99979.97;;;16.01;76.62
74915;BME280;63475;45.140;-75.616;2023-09-19T02:46:53;99978.91;;;15.93;76.84
74915;BME280;63475;45.140;-75.616;2023-09-19T02:48:56;99986.66;;;15.97;76.91
74915;BME280;63475;45.140;-75.616;2023-09-19T02:50:59;99981.75;;;15.92;76.66
74915;BME280;63475;45.140;-75.616;2023-09-19T02:53:01;99974.66;;;15.91;76.95
74915;BME280;63475;45.140;-75.616;2023-09-19T02:55:04;99972.97;;;15.90;77.17
74915;BME280;63475;45.140;-75.616;2023-09-19T02:57:11;99964.56;;;15.85;77.04
74915;BME280;63475;45.140;-75.616;2023-09-19T02:59:16;99970.09;;;15.83;77.14
74915;BME280;63475;45.140;-75.616;2023-09-19T03:01:18;99967.56;;;15.82;77.42
74915;BME280;63475;45.140;-75.616;2023-09-19T03:03:21;99966.03;;;15.79;77.37
74915;BME280;63475;45.140;-75.616;2023-09-19T03:05:25;99967.19;;;15.77;77.46
74915;BME280;63475;45.140;-75.616;2023-09-19T03:07:28;99974.56;;;15.75;77.37
74915;BME280;63475;45.140;-75.616;2023-09-19T03:09:31;99964.50;;;15.77;77.06
74915;BME280;63475;45.140;-75.616;2023-09-19T03:11:34;99960.59;;;15.71;77.31
74915;BME280;63475;45.140;-75.616;2023-09-19T03:13:37;99963.44;;;15.70;77.47
74915;BME280;63475;45.140;-75.616;2023-09-19T03:15:44;99963.59;;;15.68;77.80
74915;BME280;63475;45.140;-75.616;2023-09-19T03:17:49;99960.75;;;15.70;77.92
74915;BME280;63475;45.140;-75.616;2023-09-19T03:19:54;99972.19;;;15.72;78.17
74915;BME280;63475;45.140;-75.616;2023-09-19T03:21:56;99966.47;;;15.67;78.53
74915;BME280;63475;45.140;-75.616;2023-09-19T03:23:59;99963.25;;;15.63;78.54
74915;BME280;63475;45.140;-75.616;2023-09-19T03:26:02;99960.72;;;15.62;78.83
74915;BME280;63475;45.140;-75.616;2023-09-19T03:28:07;99965.56;;;15.58;78.95
74915;BME280;63475;45.140;-75.616;2023-09-19T03:30:10;99967.56;;;15.56;78.93
74915;BME280;63475;45.140;-75.616;2023-09-19T03:32:15;99975.06;;;15.52;79.06
74915;BME280;63475;45.140;-75.616;2023-09-19T03:34:18;99977.38;;;15.47;79.20
74915;BME280;63475;45.140;-75.616;2023-09-19T03:36:21;99974.84;;;15.46;79.31
74915;BME280;63475;45.140;-75.616;2023-09-19T03:38:23;99969.13;;;15.41;79.45
74915;BME280;63475;45.140;-75.616;2023-09-19T03:40:26;99970.97;;;15.40;79.35
74915;BME280;63475;45.140;-75.616;2023-09-19T03:42:29;99974.34;;;15.42;79.57
74915;BME280;63475;45.140;-75.616;2023-09-19T03:44:31;99965.59;;;15.40;79.35
74915;BME280;63475;45.140;-75.616;2023-09-19T03:46:34;99971.97;;;15.39;79.67
74915;BME280;63475;45.140;-75.616;2023-09-19T03:48:38;99968.59;;;15.37;79.72
74915;BME280;63475;45.140;-75.616;2023-09-19T03:50:40;99965.91;;;15.37;79.84
74915;BME280;63475;45.140;-75.616;2023-09-19T03:52:44;99968.72;;;15.36;79.69
74915;BME280;63475;45.140;-75.616;2023-09-19T03:54:47;99955.22;;;15.28;79.51
74915;BME280;63475;45.140;-75.616;2023-09-19T03:56:49;99963.13;;;15.29;80.02
74915;BME280;63475;45.140;-75.616;2023-09-19T03:58:52;99965.56;;;15.22;79.99
74915;BME280;63475;45.140;-75.616;2023-09-19T04:00:55;99962.44;;;15.27;79.81
74915;BME280;63475;45.140;-75.616;2023-09-19T04:02:58;99970.50;;;15.27;80.36
74915;BME280;63475;45.140;-75.616;2023-09-19T04:05:03;99942.47;;;15.12;80.31
74915;BME280;63475;45.140;-75.616;2023-09-19T04:07:06;99946.41;;;15.17;80.10
74915;BME280;63475;45.140;-75.616;2023-09-19T04:09:08;99958.69;;;15.20;80.18
74915;BME280;63475;45.140;-75.616;2023-09-19T04:11:11;99956.47;;;15.15;80.47
74915;BME280;63475;45.140;-75.616;2023-09-19T04:13:14;99965.38;;;15.16;80.16
74915;BME280;63475;45.140;-75.616;2023-09-19T04:15:17;99964.53;;;15.15;80.58
74915;BME280;63475;45.140;-75.616;2023-09-19T04:17:20;99952.50;;;15.10;80.81
74915;BME280;63475;45.140;-75.616;2023-09-19T04:19:23;99956.19;;;15.09;80.80
74915;BME280;63475;45.140;-75.616;2023-09-19T04:21:26;99960.72;;;15.08;80.89
74915;BME280;63475;45.140;-75.616;2023-09-19T04:23:30;99959.88;;;15.08;80.89
74915;BME280;63475;45.140;-75.616;2023-09-19T04:25:33;99956.50;;;15.06;80.63
74915;BME280;63475;45.140;-75.616;2023-09-19T04:27:35;99956.81;;;15.03;80.80
74915;BME280;63475;45.140;-75.616;2023-09-19T04:29:38;99960.31;;;15.03;81.25
74915;BME280;63475;45.140;-75.616;2023-09-19T04:31:41;99960.47;;;15.02;80.79
74915;BME280;63475;45.140;-75.616;2023-09-19T04:33:47;99960.81;;;14.99;81.21
74915;BME280;63475;45.140;-75.616;2023-09-19T04:35:50;99961.88;;;15.06;80.95
74915;BME280;63475;45.140;-75.616;2023-09-19T04:37:53;99957.94;;;15.00;81.06
74915;BME280;63475;45.140;-75.616;2023-09-19T04:39:56;99949.69;;;14.94;80.94
74915;BME280;63475;45.140;-75.616;2023-09-19T04:41:59;99958.28;;;14.97;80.99
74915;BME280;63475;45.140;-75.616;2023-09-19T04:44:02;99963.50;;;14.99;81.02
74915;BME280;63475;45.140;-75.616;2023-09-19T04:46:05;99950.66;;;14.92;81.20
74915;BME280;63475;45.140;-75.616;2023-09-19T04:48:09;99956.59;;;14.96;81.38
74915;BME280;63475;45.140;-75.616;2023-09-19T04:50:13;99953.06;;;14.96;81.28
74915;BME280;63475;45.140;-75.616;2023-09-19T04:52:16;99960.13;;;14.97;81.20
74915;BME280;63475;45.140;-75.616;2023-09-19T04:54:18;99961.13;;;14.96;81.25
74915;BME280;63475;45.140;-75.616;2023-09-19T04:56:21;99948.69;;;14.95;81.30
74915;BME280;63475;45.140;-75.616;2023-09-19T04:58:24;99959.13;;;14.98;81.36
74915;BME280;63475;45.140;-75.616;2023-09-19T05:00:26;99954.34;;;14.91;81.40
74915;BME280;63475;45.140;-75.616;2023-09-19T05:02:32;99964.78;;;14.95;81.53
74915;BME280;63475;45.140;-75.616;2023-09-19T05:04:37;99962.09;;;14.95;81.44
74915;BME280;63475;45.140;-75.616;2023-09-19T05:06:39;99969.31;;;14.94;81.56
74915;BME280;63475;45.140;-75.616;2023-09-19T05:08:44;99965.09;;;14.91;81.71
74915;BME280;63475;45.140;-75.616;2023-09-19T05:10:47;99960.56;;;14.92;81.54
74915;BME280;63475;45.140;-75.616;2023-09-19T05:12:54;99966.25;;;14.89;81.39
74915;BME280;63475;45.140;-75.616;2023-09-19T05:14:56;99965.41;;;14.88;81.40
74915;BME280;63475;45.140;-75.616;2023-09-19T05:16:59;99960.03;;;14.88;81.49
74915;BME280;63475;45.140;-75.616;2023-09-19T05:19:02;99963.94;;;14.94;81.72
74915;BME280;63475;45.140;-75.616;2023-09-19T05:21:05;99958.03;;;14.90;81.40
74915;BME280;63475;45.140;-75.616;2023-09-19T05:23:08;99960.88;;;14.89;81.53
74915;BME280;63475;45.140;-75.616;2023-09-19T05:25:13;99964.84;;;14.85;81.62
74915;BME280;63475;45.140;-75.616;2023-09-19T05:27:19;99968.22;;;14.87;81.69
74915;BME280;63475;45.140;-75.616;2023-09-19T05:29:23;99968.53;;;14.84;81.53
74915;BME280;63475;45.140;-75.616;2023-09-19T05:31:25;99961.47;;;14.83;81.63
74915;BME280;63475;45.140;-75.616;2023-09-19T05:33:28;99958.09;;;14.81;81.72
74915;BME280;63475;45.140;-75.616;2023-09-19T05:35:34;99956.56;;;14.78;81.80
74915;BME280;63475;45.140;-75.616;2023-09-19T05:37:41;99956.88;;;14.75;81.74
74915;BME280;63475;45.140;-75.616;2023-09-19T05:39:44;99969.81;;;14.80;81.86
74915;BME280;63475;45.140;-75.616;2023-09-19T05:41:47;99950.41;;;14.68;81.75
74915;BME280;63475;45.140;-75.616;2023-09-19T05:43:49;99959.03;;;14.72;81.90
74915;BME280;63475;45.140;-75.616;2023-09-19T05:45:52;99962.69;;;14.71;82.14
74915;BME280;63475;45.140;-75.616;2023-09-19T05:47:55;99963.00;;;14.68;82.02
74915;BME280;63475;45.140;-75.616;2023-09-19T05:50:03;99960.16;;;14.69;82.27
74915;BME280;63475;45.140;-75.616;2023-09-19T05:52:07;99960.47;;;14.66;82.26
74915;BME280;63475;45.140;-75.616;2023-09-19T05:54:10;99949.16;;;14.63;82.25
74915;BME280;63475;45.140;-75.616;2023-09-19T05:56:13;99961.16;;;14.68;82.21
74915;BME280;63475;45.140;-75.616;2023-09-19T05:58:17;99949.72;;;14.66;82.10
74915;BME280;63475;45.140;-75.616;2023-09-19T06:00:21;99953.84;;;14.61;82.07
74915;BME280;63475;45.140;-75.616;2023-09-19T06:02:26;99953.00;;;14.60;82.32
74915;BME280;63475;45.140;-75.616;2023-09-19T06:04:31;99956.53;;;14.61;82.06
74915;BME280;63475;45.140;-75.616;2023-09-19T06:06:33;99952.31;;;14.58;82.27
74915;BME280;63475;45.140;-75.616;2023-09-19T06:08:42;99954.63;;;14.53;82.08
74915;BME280;63475;45.140;-75.616;2023-09-19T06:10:47;99957.59;;;14.50;82.11
74915;BME280;63475;45.140;-75.616;2023-09-19T06:12:51;99957.59;;;14.50;82.18
74915;BME280;63475;45.140;-75.616;2023-09-19T06:14:53;99959.44;;;14.49;82.14
74915;BME280;63475;45.140;-75.616;2023-09-19T06:16:56;99962.66;;;14.53;81.99
74915;BME280;63475;45.140;-75.616;2023-09-19T06:18:59;99956.59;;;14.51;81.83
74915;BME280;63475;45.140;-75.616;2023-09-19T06:21:05;99961.13;;;14.50;81.96
74915;BME280;63475;45.140;-75.616;2023-09-19T06:23:10;99953.81;;;14.43;82.00
74915;BME280;63475;45.140;-75.616;2023-09-19T06:25:13;99953.50;;;14.46;81.91
74915;BME280;63475;45.140;-75.616;2023-09-19T06:27:22;99949.59;;;14.40;81.96
74915;BME280;63475;45.140;-75.616;2023-09-19T06:29:24;99958.63;;;14.39;81.89
74915;BME280;63475;45.140;-75.616;2023-09-19T06:31:27;99950.16;;;14.34;82.02
74915;BME280;63475;45.140;-75.616;2023-09-19T06:33:30;99946.19;;;14.38;82.31
74915;BME280;63475;45.140;-75.616;2023-09-19T06:35:34;99956.34;;;14.44;82.07
74915;BME280;63475;45.140;-75.616;2023-09-19T06:37:37;99955.78;;;14.41;82.22
74915;BME280;63475;45.140;-75.616;2023-09-19T06:39:43;99950.56;;;14.39;82.05
74915;BME280;63475;45.140;-75.616;2023-09-19T06:41:45;99944.94;;;14.33;82.24
74915;BME280;63475;45.140;-75.616;2023-09-19T06:43:48;99956.09;;;14.38;82.17
74915;BME280;63475;45.140;-75.616;2023-09-19T06:45:50;99946.50;;;14.35;82.15
74915;BME280;63475;45.140;-75.616;2023-09-19T06:47:56;99944.09;;;14.32;82.26
74915;BME280;63475;45.140;-75.616;2023-09-19T06:50:01;99941.28;;;14.34;82.12
74915;BME280;63475;45.140;-75.616;2023-09-19T06:52:05;99943.72;;;14.27;82.43
74915;BME280;63475;45.140;-75.616;2023-09-19T06:54:08;99947.97;;;14.30;82.12
74915;BME280;63475;45.140;-75.616;2023-09-19T06:56:11;99923.69;;;14.21;82.51
74915;BME280;63475;45.140;-75.616;2023-09-19T06:58:13;99932.75;;;14.20;82.25
74915;BME280;63475;45.140;-75.616;2023-09-19T07:00:18;99931.75;;;14.21;82.22
74915;BME280;63475;45.140;-75.616;2023-09-19T07:02:21;99939.66;;;14.23;82.74
74915;BME280;63475;45.140;-75.616;2023-09-19T07:04:24;99931.47;;;14.25;82.46
74915;BME280;63475;45.140;-75.616;2023-09-19T07:06:27;99922.72;;;14.22;82.58
74915;BME280;63475;45.140;-75.616;2023-09-19T07:08:30;99925.09;;;14.26;82.47
74915;BME280;63475;45.140;-75.616;2023-09-19T07:10:33;99929.63;;;14.25;82.21
74915;BME280;63475;45.140;-75.616;2023-09-19T07:12:36;99924.84;;;14.19;82.51
74915;BME280;63475;45.140;-75.616;2023-09-19T07:14:40;99922.31;;;14.17;82.84
74915;BME280;63475;45.140;-75.616;2023-09-19T07:16:42;99920.22;;;14.11;82.33
74915;BME280;63475;45.140;-75.616;2023-09-19T07:18:47;99927.66;;;14.17;82.33
74915;BME280;63475;45.140;-75.616;2023-09-19T07:20:49;99920.63;;;14.16;82.76
74915;BME280;63475;45.140;-75.616;2023-09-19T07:22:52;99919.22;;;14.12;82.44
74915;BME280;63475;45.140;-75.616;2023-09-19T07:24:57;99916.94;;;14.17;82.76
74915;BME280;63475;45.140;-75.616;2023-09-19T07:26:59;99914.69;;;14.13;82.60
74915;BME280;63475;45.140;-75.616;2023-09-19T07:29:02;99922.59;;;14.14;82.83
74915;BME280;63475;45.140;-75.616;2023-09-19T07:31:05;99920.53;;;14.08;82.90
74915;BME280;63475;45.140;-75.616;2023-09-19T07:33:12;99913.47;;;14.07;83.39
74915;BME280;63475;45.140;-75.616;2023-09-19T07:35:15;99912.50;;;14.08;83.14
74915;BME280;63475;45.140;-75.616;2023-09-19T07:37:17;99923.03;;;14.10;83.20
74915;BME280;63475;45.140;-75.616;2023-09-19T07:39:20;99918.09;;;14.05;83.45
74915;BME280;63475;45.140;-75.616;2023-09-19T07:41:24;99907.97;;;13.99;83.03
74915;BME280;63475;45.140;-75.616;2023-09-19T07:43:27;99922.38;;;14.08;83.11
74915;BME280;63475;45.140;-75.616;2023-09-19T07:45:33;99924.47;;;14.04;83.59
74915;BME280;63475;45.140;-75.616;2023-09-19T07:47:36;99920.09;;;14.03;83.36
74915;BME280;63475;45.140;-75.616;2023-09-19T07:49:39;99913.31;;;13.99;83.23
74915;BME280;63475;45.140;-75.616;2023-09-19T07:51:41;99924.59;;;14.03;83.38
74915;BME280;63475;45.140;-75.616;2023-09-19T07:53:51;99925.47;;;14.03;83.60
74915;BME280;63475;45.140;-75.616;2023-09-19T07:56:04;99922.06;;;14.01;83.54
74915;BME280;63475;45.140;-75.616;2023-09-19T07:58:07;99925.47;;;14.03;83.49
74915;BME280;63475;45.140;-75.616;2023-09-19T08:00:10;99929.81;;;14.04;83.77
74915;BME280;63475;45.140;-75.616;2023-09-19T08:02:13;99906.13;;;14.00;83.71
74915;BME280;63475;45.140;-75.616;2023-09-19T08:04:20;99921.38;;;13.99;83.50
74915;BME280;63475;45.140;-75.616;2023-09-19T08:06:23;99920.69;;;13.97;83.97
74915;BME280;63475;45.140;-75.616;2023-09-19T08:08:27;99920.13;;;13.94;83.93
74915;BME280;63475;45.140;-75.616;2023-09-19T08:10:29;99913.91;;;13.93;84.00
74915;BME280;63475;45.140;-75.616;2023-09-19T08:12:37;99918.97;;;13.96;83.78
74915;BME280;63475;45.140;-75.616;2023-09-19T08:14:43;99932.09;;;13.99;83.76
74915;BME280;63475;45.140;-75.616;2023-09-19T08:16:45;99925.03;;;13.98;83.86
74915;BME280;63475;45.140;-75.616;2023-09-19T08:18:49;99919.28;;;13.93;84.06
74915;BME280;63475;45.140;-75.616;2023-09-19T08:20:57;99925.19;;;13.97;83.83
74915;BME280;63475;45.140;-75.616;2023-09-19T08:23:02;99928.00;;;13.95;83.87
74915;BME280;63475;45.140;-75.616;2023-09-19T08:25:06;99930.00;;;13.93;84.06
74915;BME280;63475;45.140;-75.616;2023-09-19T08:27:09;99923.56;;;13.86;83.99
74915;BME280;63475;45.140;-75.616;2023-09-19T08:29:12;99919.84;;;13.87;84.11
74915;BME280;63475;45.140;-75.616;2023-09-19T08:31:15;99926.06;;;13.87;84.51
74915;BME280;63475;45.140;-75.616;2023-09-19T08:33:19;99919.19;;;13.85;84.32
74915;BME280;63475;45.140;-75.616;2023-09-19T08:35:23;99930.56;;;13.87;84.40
74915;BME280;63475;45.140;-75.616;2023-09-19T08:37:27;99927.91;;;13.87;84.51
74915;BME280;63475;45.140;-75.616;2023-09-19T08:39:30;99926.91;;;13.88;84.21
74915;BME280;63475;45.140;-75.616;2023-09-19T08:41:35;99928.59;;;13.89;84.54
74915;BME280;63475;45.140;-75.616;2023-09-19T08:43:38;99919.00;;;13.86;84.36
74915;BME280;63475;45.140;-75.616;2023-09-19T08:45:42;99932.25;;;13.88;84.61
74915;BME280;63475;45.140;-75.616;2023-09-19T08:48:06;99934.81;;;13.89;84.66
74915;BME280;63475;45.140;-75.616;2023-09-19T08:50:26;99929.72;;;13.86;84.81
74915;BME280;63475;45.140;-75.616;2023-09-19T08:52:37;99935.94;;;13.87;84.64
74915;BME280;63475;45.140;-75.616;2023-09-19T08:54:45;99928.22;;;13.84;84.65
74915;BME280;63475;45.140;-75.616;2023-09-19T08:56:50;99929.72;;;13.86;84.92
74915;BME280;63475;45.140;-75.616;2023-09-19T08:59:11;99936.78;;;13.87;84.99
74915;BME280;63475;45.140;-75.616;2023-09-19T09:01:17;99938.63;;;13.87;85.16
74915;BME280;63475;45.140;-75.616;2023-09-19T09:03:32;99930.34;;;13.80;85.12
74915;BME280;63475;45.140;-75.616;2023-09-19T09:05:36;99935.09;;;13.86;84.88
74915;BME280;63475;45.140;-75.616;2023-09-19T09:07:40;99941.63;;;13.84;85.19
74915;BME280;63475;45.140;-75.616;2023-09-19T09:09:43;99923.16;;;13.71;85.12
74915;BME280;63475;45.140;-75.616;2023-09-19T09:11:50;99936.69;;;13.79;85.49
74915;BME280;63475;45.140;-75.616;2023-09-19T09:13:58;99937.53;;;13.80;85.36
74915;BME280;63475;45.140;-75.616;2023-09-19T09:16:01;99935.00;;;13.78;85.58
74915;BME280;63475;45.140;-75.616;2023-09-19T09:18:04;99938.22;;;13.82;85.44
74915;BME280;63475;45.140;-75.616;2023-09-19T09:20:07;99948.66;;;13.85;85.41
74915;BME280;63475;45.140;-75.616;2023-09-19T09:22:12;99938.22;;;13.82;85.58
74915;BME280;63475;45.140;-75.616;2023-09-19T09:24:27;99948.81;;;13.83;85.53
74915;BME280;63475;45.140;-75.616;2023-09-19T09:26:42;99944.72;;;13.79;85.63
74915;BME280;63475;45.140;-75.616;2023-09-19T09:28:46;99954.59;;;13.79;85.81
74915;BME280;63475;45.140;-75.616;2023-09-19T09:30:52;99947.00;;;13.74;85.89
74915;BME280;63475;45.140;-75.616;2023-09-19T09:33:08;99956.44;;;13.78;85.73
74915;BME280;63475;45.140;-75.616;2023-09-19T09:35:13;99942.63;;;13.73;85.96
74915;BME280;63475;45.140;-75.616;2023-09-19T09:37:19;99945.31;;;13.73;85.98
74915;BME280;63475;45.140;-75.616;2023-09-19T09:39:31;99942.63;;;13.73;85.93
74915;BME280;63475;45.140;-75.616;2023-09-19T09:41:37;99954.19;;;13.74;86.30
74915;BME280;63475;45.140;-75.616;2023-09-19T09:43:42;99942.06;;;13.70;86.09
74915;BME280;63475;45.140;-75.616;2023-09-19T09:46:10;99958.28;;;13.78;86.09
74915;BME280;63475;45.140;-75.616;2023-09-19T09:48:33;99948.13;;;13.72;86.23
74915;BME280;63475;45.140;-75.616;2023-09-19T09:50:48;99946.72;;;13.68;86.03
74915;BME280;63475;45.140;-75.616;2023-09-19T09:52:53;99961.38;;;13.73;85.98
74915;BME280;63475;45.140;-75.616;2023-09-19T09:55:02;99950.09;;;13.70;86.30
74915;BME280;63475;45.140;-75.616;2023-09-19T09:57:09;99956.88;;;13.74;86.44
74915;BME280;63475;45.140;-75.616;2023-09-19T09:59:45;99964.22;;;13.72;86.36
74915;BME280;63475;45.140;-75.616;2023-09-19T10:02:01;99961.66;;;13.70;86.55
74915;BME280;63475;45.140;-75.616;2023-09-19T10:04:05;99966.19;;;13.70;86.39
74915;BME280;63475;45.140;-75.616;2023-09-19T10:06:10;99966.19;;;13.70;86.40
74915;BME280;63475;45.140;-75.616;2023-09-19T10:08:28;99967.31;;;13.67;86.54
74915;BME280;63475;45.140;-75.616;2023-09-19T10:10:37;99970.97;;;13.66;86.71
74915;BME280;63475;45.140;-75.616;2023-09-19T10:12:58;99976.47;;;13.65;86.74
74915;BME280;63475;45.140;-75.616;2023-09-19T10:15:06;99969.03;;;13.59;86.67
74915;BME280;63475;45.140;-75.616;2023-09-19T10:17:10;99976.66;;;13.63;86.93
74915;BME280;63475;45.140;-75.616;2023-09-19T10:19:25;99991.19;;;13.61;86.99
74915;BME280;63475;45.140;-75.616;2023-09-19T10:21:29;99985.13;;;13.59;87.01
74915;BME280;63475;45.140;-75.616;2023-09-19T10:23:32;99988.78;;;13.58;86.91
74915;BME280;63475;45.140;-75.616;2023-09-19T10:25:37;99992.72;;;13.53;87.10
74915;BME280;63475;45.140;-75.616;2023-09-19T10:27:41;99982.56;;;13.47;87.25
74915;BME280;63475;45.140;-75.616;2023-09-19T10:29:49;99986.81;;;13.50;87.12
74915;BME280;63475;45.140;-75.616;2023-09-19T10:31:54;99992.16;;;13.50;87.54
74915;BME280;63475;45.140;-75.616;2023-09-19T10:33:58;99991.31;;;13.49;87.23
74915;BME280;63475;45.140;-75.616;2023-09-19T10:36:01;99990.19;;;13.42;87.37
74915;BME280;63475;45.140;-75.616;2023-09-19T10:38:09;99996.53;;;13.41;87.73
74915;BME280;63475;45.140;-75.616;2023-09-19T10:40:12;99992.19;;;13.40;87.49
74915;BME280;63475;45.140;-75.616;2023-09-19T10:42:20;100007.69;;;13.46;87.31
74915;BME280;63475;45.140;-75.616;2023-09-19T10:44:25;100004.28;;;13.44;87.36
74915;BME280;63475;45.140;-75.616;2023-09-19T10:46:28;100007.25;;;13.41;87.33
74915;BME280;63475;45.140;-75.616;2023-09-19T10:48:31;100008.53;;;13.37;87.69
74915;BME280;63475;45.140;-75.616;2023-09-19T10:50:37;100011.94;;;13.39;87.95